sensor_id;sensor_type;location;lat;lon;timestamp;P1;durP1;ratioP1;P2;durP2;ratioP2
51718;SDS011;37795;53.236;5.704;2024-03-07T06:51:12;9.10;;;6.60;;
51718;SDS011;37795;53.236;5.704;2024-03-07T06:53:38;8.15;;;6.50;;
51718;SDS011;37795;53.236;5.704;2024-03-07T06:56:04;8.98;;;7.15;;
51718;SDS011;37795;53.236;5.704;2024-03-07T06:58:31;8.25;;;6.88;;
51718;SDS011;37795;53.236;5.704;2024-03-07T07:00:57;8.10;;;7.00;;
51718;SDS011;37795;53.236;5.704;2024-03-07T07:03:25;7.45;;;6.47;;
51718;SDS011;37795;53.236;5.704;2024-03-07T07:05:53;8.30;;;6.28;;
51718;SDS011;37795;53.236;5.704;2024-03-07T07:08:19;7.97;;;6.63;;
51718;SDS011;37795;53.236;5.704;2024-03-07T07:10:45;7.60;;;6.50;;
51718;SDS011;37795;53.236;5.704;2024-03-07T07:13:12;7.22;;;5.78;;
51718;SDS011;37795;53.236;5.704;2024-03-07T07:15:38;7.43;;;6.30;;
51718;SDS011;37795;53.236;5.704;2024-03-07T07:18:04;7.50;;;6.37;;
51718;SDS011;37795;53.236;5.704;2024-03-07T07:20:32;7.60;;;6.30;;
51718;SDS011;37795;53.236;5.704;2024-03-07T07:22:59;7.10;;;6.10;;
51718;SDS011;37795;53.236;5.704;2024-03-07T07:25:27;6.70;;;5.65;;
51718;SDS011;37795;53.236;5.704;2024-03-07T07:27:53;7.10;;;5.70;;
51718;SDS011;37795;53.236;5.704;2024-03-07T07:30:19;6.80;;;5.80;;
51718;SDS011;37795;53.236;5.704;2024-03-07T07:32:50;6.80;;;5.60;;
51718;SDS011;37795;53.236;5.704;2024-03-07T07:35:17;6.27;;;5.10;;
51718;SDS011;37795;53.236;5.704;2024-03-07T07:40:10;6.40;;;5.28;;
51718;SDS011;37795;53.236;5.704;2024-03-07T07:42:43;6.43;;;5.40;;
51718;SDS011;37795;53.236;5.704;2024-03-07T07:45:11;5.63;;;5.00;;
51718;SDS011;37795;53.236;5.704;2024-03-07T07:47:42;6.22;;;5.53;;
51718;SDS011;37795;53.236;5.704;2024-03-07T07:50:12;6.13;;;4.90;;
51718;SDS011;37795;53.236;5.704;2024-03-07T07:52:42;6.28;;;4.85;;
51718;SDS011;37795;53.236;5.704;2024-03-07T07:55:08;5.72;;;5.05;;
51718;SDS011;37795;53.236;5.704;2024-03-07T07:57:41;5.90;;;4.88;;
51718;SDS011;37795;53.236;5.704;2024-03-07T08:00:08;6.32;;;5.05;;
51718;SDS011;37795;53.236;5.704;2024-03-07T08:02:36;5.47;;;4.80;;
51718;SDS011;37795;53.236;5.704;2024-03-07T08:05:02;6.45;;;5.10;;
51718;SDS011;37795;53.236;5.704;2024-03-07T08:07:30;5.65;;;4.85;;
51718;SDS011;37795;53.236;5.704;2024-03-07T08:09:56;5.00;;;4.40;;
51718;SDS011;37795;53.236;5.704;2024-03-07T08:12:22;5.38;;;4.70;;
51718;SDS011;37795;53.236;5.704;2024-03-07T08:14:48;5.28;;;4.38;;
51718;SDS011;37795;53.236;5.704;2024-03-07T08:17:13;5.53;;;4.83;;
51718;SDS011;37795;53.236;5.704;2024-03-07T08:19:39;5.60;;;4.50;;
51718;SDS011;37795;53.236;5.704;2024-03-07T08:22:05;5.25;;;4.75;;
51718;SDS011;37795;53.236;5.704;2024-03-07T08:24:31;5.60;;;4.60;;
51718;SDS011;37795;53.236;5.704;2024-03-07T08:26:57;5.00;;;4.50;;
51718;SDS011;37795;53.236;5.704;2024-03-07T08:29:23;5.47;;;4.63;;
51718;SDS011;37795;53.236;5.704;2024-03-07T08:31:49;5.47;;;4.70;;
51718;SDS011;37795;53.236;5.704;2024-03-07T08:34:15;5.97;;;4.77;;
51718;SDS011;37795;53.236;5.704;2024-03-07T08:36:40;5.43;;;4.32;;
51718;SDS011;37795;53.236;5.704;2024-03-07T08:39:06;5.28;;;4.78;;
51718;SDS011;37795;53.236;5.704;2024-03-07T08:41:36;5.53;;;4.40;;
51718;SDS011;37795;53.236;5.704;2024-03-07T08:44:06;5.75;;;4.40;;
51718;SDS011;37795;53.236;5.704;2024-03-07T08:46:32;5.57;;;4.47;;
51718;SDS011;37795;53.236;5.704;2024-03-07T08:48:58;5.43;;;4.65;;
51718;SDS011;37795;53.236;5.704;2024-03-07T08:51:24;5.60;;;4.65;;
51718;SDS011;37795;53.236;5.704;2024-03-07T08:53:50;5.15;;;4.30;;
51718;SDS011;37795;53.236;5.704;2024-03-07T08:56:15;5.43;;;4.40;;
51718;SDS011;37795;53.236;5.704;2024-03-07T08:58:41;5.70;;;4.30;;
51718;SDS011;37795;53.236;5.704;2024-03-07T09:01:08;5.38;;;4.30;;
51718;SDS011;37795;53.236;5.704;2024-03-07T09:03:34;5.55;;;4.68;;
51718;SDS011;37795;53.236;5.704;2024-03-07T09:06:00;5.30;;;4.40;;
51718;SDS011;37795;53.236;5.704;2024-03-07T09:08:26;6.00;;;4.77;;
51718;SDS011;37795;53.236;5.704;2024-03-07T09:10:51;5.63;;;4.57;;
51718;SDS011;37795;53.236;5.704;2024-03-07T09:13:20;5.05;;;4.40;;
51718;SDS011;37795;53.236;5.704;2024-03-07T09:15:46;6.20;;;5.00;;
51718;SDS011;37795;53.236;5.704;2024-03-07T09:18:12;5.03;;;4.32;;
51718;SDS011;37795;53.236;5.704;2024-03-07T09:20:38;5.47;;;4.65;;
51718;SDS011;37795;53.236;5.704;2024-03-07T09:23:04;5.20;;;4.65;;
51718;SDS011;37795;53.236;5.704;2024-03-07T09:25:31;5.82;;;4.70;;
51718;SDS011;37795;53.236;5.704;2024-03-07T09:28:01;5.43;;;4.32;;
51718;SDS011;37795;53.236;5.704;2024-03-07T09:30:26;4.75;;;4.22;;
51718;SDS011;37795;53.236;5.704;2024-03-07T09:32:56;5.07;;;4.57;;
51718;SDS011;37795;53.236;5.704;2024-03-07T09:35:21;5.05;;;4.30;;
51718;SDS011;37795;53.236;5.704;2024-03-07T09:37:47;5.55;;;5.00;;
51718;SDS011;37795;53.236;5.704;2024-03-07T09:40:13;5.97;;;4.80;;
51718;SDS011;37795;53.236;5.704;2024-03-07T09:42:41;5.50;;;4.40;;
51718;SDS011;37795;53.236;5.704;2024-03-07T09:45:10;4.72;;;4.10;;
51718;SDS011;37795;53.236;5.704;2024-03-07T09:47:40;6.07;;;4.72;;
51718;SDS011;37795;53.236;5.704;2024-03-07T09:50:09;5.00;;;4.20;;
51718;SDS011;37795;53.236;5.704;2024-03-07T09:52:35;5.40;;;4.63;;
51718;SDS011;37795;53.236;5.704;2024-03-07T09:55:01;5.57;;;4.55;;
51718;SDS011;37795;53.236;5.704;2024-03-07T09:57:27;5.50;;;4.50;;
51718;SDS011;37795;53.236;5.704;2024-03-07T09:59:59;5.28;;;4.70;;
51718;SDS011;37795;53.236;5.704;2024-03-07T10:02:27;9.30;;;4.32;;
51718;SDS011;37795;53.236;5.704;2024-03-07T10:04:56;5.97;;;4.93;;
51718;SDS011;37795;53.236;5.704;2024-03-07T10:07:22;5.60;;;4.25;;
51718;SDS011;37795;53.236;5.704;2024-03-07T10:09:49;5.28;;;4.43;;
51718;SDS011;37795;53.236;5.704;2024-03-07T10:12:17;5.65;;;4.38;;
51718;SDS011;37795;53.236;5.704;2024-03-07T10:14:56;4.95;;;4.45;;
51718;SDS011;37795;53.236;5.704;2024-03-07T10:17:25;4.82;;;4.32;;
51718;SDS011;37795;53.236;5.704;2024-03-07T10:19:51;5.20;;;4.68;;
51718;SDS011;37795;53.236;5.704;2024-03-07T10:22:18;5.00;;;4.32;;
51718;SDS011;37795;53.236;5.704;2024-03-07T10:24:51;5.05;;;4.32;;
51718;SDS011;37795;53.236;5.704;2024-03-07T10:27:20;5.32;;;4.15;;
51718;SDS011;37795;53.236;5.704;2024-03-07T10:29:47;4.85;;;4.35;;
51718;SDS011;37795;53.236;5.704;2024-03-07T10:32:19;4.70;;;4.20;;
51718;SDS011;37795;53.236;5.704;2024-03-07T10:34:46;5.07;;;4.40;;
51718;SDS011;37795;53.236;5.704;2024-03-07T10:37:13;5.47;;;4.45;;
51718;SDS011;37795;53.236;5.704;2024-03-07T10:39:45;4.82;;;4.10;;
51718;SDS011;37795;53.236;5.704;2024-03-07T10:42:16;5.28;;;4.50;;
51718;SDS011;37795;53.236;5.704;2024-03-07T10:54:37;4.32;;;2.95;;
51718;SDS011;37795;53.236;5.704;2024-03-07T10:59:41;6.32;;;3.53;;
51718;SDS011;37795;53.236;5.704;2024-03-07T11:04:58;5.10;;;3.45;;
51718;SDS011;37795;53.236;5.704;2024-03-07T11:07:24;4.10;;;2.92;;
51718;SDS011;37795;53.236;5.704;2024-03-07T11:09:52;5.53;;;3.38;;
51718;SDS011;37795;53.236;5.704;2024-03-07T11:12:23;5.07;;;3.17;;
51718;SDS011;37795;53.236;5.704;2024-03-07T11:14:51;4.22;;;3.35;;
51718;SDS011;37795;53.236;5.704;2024-03-07T11:17:19;4.32;;;2.95;;
51718;SDS011;37795;53.236;5.704;2024-03-07T11:19:46;4.65;;;3.30;;
51718;SDS011;37795;53.236;5.704;2024-03-07T11:22:29;4.93;;;3.33;;
51718;SDS011;37795;53.236;5.704;2024-03-07T11:25:02;5.85;;;3.58;;
51718;SDS011;37795;53.236;5.704;2024-03-07T11:27:32;4.28;;;3.03;;
51718;SDS011;37795;53.236;5.704;2024-03-07T11:30:05;4.82;;;3.20;;
51718;SDS011;37795;53.236;5.704;2024-03-07T11:32:34;3.78;;;2.85;;
51718;SDS011;37795;53.236;5.704;2024-03-07T11:35:05;5.55;;;3.60;;
51718;SDS011;37795;53.236;5.704;2024-03-07T11:37:39;4.53;;;3.25;;
51718;SDS011;37795;53.236;5.704;2024-03-07T11:40:58;6.07;;;3.08;;
51718;SDS011;37795;53.236;5.704;2024-03-07T11:43:00;4.97;;;3.50;;
51718;SDS011;37795;53.236;5.704;2024-03-07T11:45:30;4.43;;;3.17;;
51718;SDS011;37795;53.236;5.704;2024-03-07T11:48:03;4.28;;;3.00;;
51718;SDS011;37795;53.236;5.704;2024-03-07T11:50:37;5.00;;;3.22;;
51718;SDS011;37795;53.236;5.704;2024-03-07T11:53:05;5.20;;;3.65;;
51718;SDS011;37795;53.236;5.704;2024-03-07T11:55:31;5.10;;;3.38;;
51718;SDS011;37795;53.236;5.704;2024-03-07T11:58:19;5.07;;;3.08;;
51718;SDS011;37795;53.236;5.704;2024-03-07T12:00:49;5.68;;;3.38;;
51718;SDS011;37795;53.236;5.704;2024-03-07T12:03:17;5.32;;;3.25;;
51718;SDS011;37795;53.236;5.704;2024-03-07T12:05:48;5.43;;;3.47;;
51718;SDS011;37795;53.236;5.704;2024-03-07T12:08:16;5.25;;;3.55;;
51718;SDS011;37795;53.236;5.704;2024-03-07T12:10:42;3.95;;;2.92;;
51718;SDS011;37795;53.236;5.704;2024-03-07T12:13:13;4.43;;;2.97;;
51718;SDS011;37795;53.236;5.704;2024-03-07T12:15:44;5.47;;;3.22;;
51718;SDS011;37795;53.236;5.704;2024-03-07T12:18:10;4.45;;;3.33;;
51718;SDS011;37795;53.236;5.704;2024-03-07T12:20:42;4.93;;;3.38;;
51718;SDS011;37795;53.236;5.704;2024-03-07T12:23:15;5.15;;;3.42;;
51718;SDS011;37795;53.236;5.704;2024-03-07T12:25:44;5.05;;;3.42;;
51718;SDS011;37795;53.236;5.704;2024-03-07T12:28:11;6.18;;;3.45;;
51718;SDS011;37795;53.236;5.704;2024-03-07T12:30:54;5.85;;;3.70;;
51718;SDS011;37795;53.236;5.704;2024-03-07T12:33:21;4.90;;;3.45;;
51718;SDS011;37795;53.236;5.704;2024-03-07T12:38:18;5.40;;;3.22;;
51718;SDS011;37795;53.236;5.704;2024-03-07T12:40:45;4.63;;;3.35;;
51718;SDS011;37795;53.236;5.704;2024-03-07T12:43:16;4.57;;;3.25;;
51718;SDS011;37795;53.236;5.704;2024-03-07T12:45:44;5.45;;;3.55;;
51718;SDS011;37795;53.236;5.704;2024-03-07T12:48:13;5.22;;;3.80;;
51718;SDS011;37795;53.236;5.704;2024-03-07T12:50:39;4.65;;;3.22;;
51718;SDS011;37795;53.236;5.704;2024-03-07T12:53:06;4.50;;;3.15;;
51718;SDS011;37795;53.236;5.704;2024-03-07T12:55:39;4.95;;;3.42;;
51718;SDS011;37795;53.236;5.704;2024-03-07T12:58:09;4.75;;;3.20;;
51718;SDS011;37795;53.236;5.704;2024-03-07T13:00:38;5.65;;;3.47;;
51718;SDS011;37795;53.236;5.704;2024-03-07T13:03:06;6.40;;;3.65;;
51718;SDS011;37795;53.236;5.704;2024-03-07T13:05:38;6.38;;;3.70;;
51718;SDS011;37795;53.236;5.704;2024-03-07T13:08:08;5.65;;;3.15;;
51718;SDS011;37795;53.236;5.704;2024-03-07T13:10:39;4.88;;;3.35;;
51718;SDS011;37795;53.236;5.704;2024-03-07T13:13:09;5.70;;;3.45;;
51718;SDS011;37795;53.236;5.704;2024-03-07T13:15:36;5.05;;;3.45;;
51718;SDS011;37795;53.236;5.704;2024-03-07T13:18:07;5.80;;;3.53;;
51718;SDS011;37795;53.236;5.704;2024-03-07T13:20:34;5.07;;;3.35;;
51718;SDS011;37795;53.236;5.704;2024-03-07T13:23:03;4.10;;;3.15;;
51718;SDS011;37795;53.236;5.704;2024-03-07T13:25:30;4.85;;;3.30;;
51718;SDS011;37795;53.236;5.704;2024-03-07T13:28:01;4.47;;;3.00;;
51718;SDS011;37795;53.236;5.704;2024-03-07T13:30:54;5.57;;;3.53;;
51718;SDS011;37795;53.236;5.704;2024-03-07T13:33:20;4.53;;;3.45;;
51718;SDS011;37795;53.236;5.704;2024-03-07T13:35:46;5.05;;;3.40;;
51718;SDS011;37795;53.236;5.704;2024-03-07T13:38:12;4.43;;;3.13;;
51718;SDS011;37795;53.236;5.704;2024-03-07T13:40:39;5.05;;;3.75;;
51718;SDS011;37795;53.236;5.704;2024-03-07T13:43:06;6.00;;;3.60;;
51718;SDS011;37795;53.236;5.704;2024-03-07T13:45:33;5.40;;;3.70;;
51718;SDS011;37795;53.236;5.704;2024-03-07T13:48:08;5.35;;;3.60;;
51718;SDS011;37795;53.236;5.704;2024-03-07T13:50:35;5.20;;;3.10;;
51718;SDS011;37795;53.236;5.704;2024-03-07T13:53:09;5.05;;;3.55;;
51718;SDS011;37795;53.236;5.704;2024-03-07T13:55:45;4.97;;;3.20;;
51718;SDS011;37795;53.236;5.704;2024-03-07T13:58:17;5.60;;;3.35;;
51718;SDS011;37795;53.236;5.704;2024-03-07T14:01:01;4.35;;;3.03;;
51718;SDS011;37795;53.236;5.704;2024-03-07T14:06:48;5.65;;;3.42;;
51718;SDS011;37795;53.236;5.704;2024-03-07T14:10:04;5.20;;;3.28;;
51718;SDS011;37795;53.236;5.704;2024-03-07T14:21:29;4.57;;;3.13;;
51718;SDS011;37795;53.236;5.704;2024-03-07T14:27:22;5.57;;;3.28;;
51718;SDS011;37795;53.236;5.704;2024-03-07T14:33:08;4.72;;;3.08;;
51718;SDS011;37795;53.236;5.704;2024-03-07T14:41:20;4.32;;;3.30;;
51718;SDS011;37795;53.236;5.704;2024-03-07T14:44:04;5.32;;;3.58;;
51718;SDS011;37795;53.236;5.704;2024-03-07T14:46:32;5.18;;;3.25;;
51718;SDS011;37795;53.236;5.704;2024-03-07T14:48:58;6.18;;;3.83;;
51718;SDS011;37795;53.236;5.704;2024-03-07T14:51:24;5.15;;;3.08;;
51718;SDS011;37795;53.236;5.704;2024-03-07T14:53:51;4.70;;;2.95;;
51718;SDS011;37795;53.236;5.704;2024-03-07T14:56:17;5.68;;;2.88;;
51718;SDS011;37795;53.236;5.704;2024-03-07T14:58:45;4.90;;;3.00;;
51718;SDS011;37795;53.236;5.704;2024-03-07T15:01:11;4.18;;;3.35;;
51718;SDS011;37795;53.236;5.704;2024-03-07T15:03:38;4.40;;;3.05;;
51718;SDS011;37795;53.236;5.704;2024-03-07T15:06:06;5.32;;;3.25;;
51718;SDS011;37795;53.236;5.704;2024-03-07T15:08:39;5.25;;;3.58;;
51718;SDS011;37795;53.236;5.704;2024-03-07T15:11:20;5.32;;;3.60;;
51718;SDS011;37795;53.236;5.704;2024-03-07T15:13:50;5.45;;;3.25;;
51718;SDS011;37795;53.236;5.704;2024-03-07T15:16:16;5.13;;;3.20;;
51718;SDS011;37795;53.236;5.704;2024-03-07T15:18:42;5.63;;;3.50;;
51718;SDS011;37795;53.236;5.704;2024-03-07T15:21:09;4.40;;;3.25;;
51718;SDS011;37795;53.236;5.704;2024-03-07T15:23:35;5.32;;;3.35;;
51718;SDS011;37795;53.236;5.704;2024-03-07T15:26:01;5.78;;;3.33;;
51718;SDS011;37795;53.236;5.704;2024-03-07T15:28:28;4.95;;;3.10;;
51718;SDS011;37795;53.236;5.704;2024-03-07T15:30:55;4.57;;;3.10;;
51718;SDS011;37795;53.236;5.704;2024-03-07T15:33:20;5.53;;;2.95;;
51718;SDS011;37795;53.236;5.704;2024-03-07T15:35:47;4.45;;;3.10;;
51718;SDS011;37795;53.236;5.704;2024-03-07T15:38:13;4.65;;;3.08;;
51718;SDS011;37795;53.236;5.704;2024-03-07T15:40:42;5.45;;;3.00;;
51718;SDS011;37795;53.236;5.704;2024-03-07T15:43:07;4.50;;;3.10;;
51718;SDS011;37795;53.236;5.704;2024-03-07T15:45:33;4.40;;;2.95;;
51718;SDS011;37795;53.236;5.704;2024-03-07T15:47:59;5.05;;;3.10;;
51718;SDS011;37795;53.236;5.704;2024-03-07T15:53:02;4.75;;;3.05;;
51718;SDS011;37795;53.236;5.704;2024-03-07T15:55:31;4.93;;;2.83;;
51718;SDS011;37795;53.236;5.704;2024-03-07T15:57:59;4.70;;;2.88;;
51718;SDS011;37795;53.236;5.704;2024-03-07T16:00:35;4.55;;;3.10;;
51718;SDS011;37795;53.236;5.704;2024-03-07T16:03:04;4.13;;;2.97;;
51718;SDS011;37795;53.236;5.704;2024-03-07T16:05:35;6.82;;;3.30;;
51718;SDS011;37795;53.236;5.704;2024-03-07T16:08:03;4.32;;;3.03;;
51718;SDS011;37795;53.236;5.704;2024-03-07T16:10:31;4.72;;;2.75;;
51718;SDS011;37795;53.236;5.704;2024-03-07T16:13:05;4.80;;;3.45;;
51718;SDS011;37795;53.236;5.704;2024-03-07T16:15:37;4.80;;;3.17;;
51718;SDS011;37795;53.236;5.704;2024-03-07T16:18:04;3.88;;;2.90;;
51718;SDS011;37795;53.236;5.704;2024-03-07T16:20:31;4.07;;;2.75;;
51718;SDS011;37795;53.236;5.704;2024-03-07T16:22:58;4.20;;;2.90;;
51718;SDS011;37795;53.236;5.704;2024-03-07T16:25:24;5.05;;;3.33;;
51718;SDS011;37795;53.236;5.704;2024-03-07T16:27:51;4.15;;;3.05;;
51718;SDS011;37795;53.236;5.704;2024-03-07T16:32:46;4.43;;;3.20;;
51718;SDS011;37795;53.236;5.704;2024-03-07T16:35:18;4.25;;;2.78;;
51718;SDS011;37795;53.236;5.704;2024-03-07T16:37:46;4.90;;;3.05;;
51718;SDS011;37795;53.236;5.704;2024-03-07T16:40:20;4.22;;;2.90;;
51718;SDS011;37795;53.236;5.704;2024-03-07T16:42:51;5.18;;;3.10;;
51718;SDS011;37795;53.236;5.704;2024-03-07T16:45:22;3.53;;;2.60;;
51718;SDS011;37795;53.236;5.704;2024-03-07T16:47:50;5.13;;;2.80;;
51718;SDS011;37795;53.236;5.704;2024-03-07T16:50:17;4.43;;;2.95;;
51718;SDS011;37795;53.236;5.704;2024-03-07T16:52:54;4.22;;;2.78;;
51718;SDS011;37795;53.236;5.704;2024-03-07T16:55:21;4.43;;;3.28;;
51718;SDS011;37795;53.236;5.704;2024-03-07T16:57:47;4.47;;;2.58;;
51718;SDS011;37795;53.236;5.704;2024-03-07T17:00:16;5.03;;;3.10;;
51718;SDS011;37795;53.236;5.704;2024-03-07T17:02:55;5.28;;;2.60;;
51718;SDS011;37795;53.236;5.704;2024-03-07T17:07:47;4.03;;;3.00;;
51718;SDS011;37795;53.236;5.704;2024-03-07T17:10:14;3.92;;;2.60;;
51718;SDS011;37795;53.236;5.704;2024-03-07T17:12:41;3.70;;;2.75;;
51718;SDS011;37795;53.236;5.704;2024-03-07T17:15:09;3.70;;;2.58;;
51718;SDS011;37795;53.236;5.704;2024-03-07T17:17:40;3.70;;;2.45;;
51718;SDS011;37795;53.236;5.704;2024-03-07T17:20:12;4.57;;;3.20;;
51718;SDS011;37795;53.236;5.704;2024-03-07T17:22:39;4.78;;;3.05;;
51718;SDS011;37795;53.236;5.704;2024-03-07T17:25:05;4.43;;;2.97;;
51718;SDS011;37795;53.236;5.704;2024-03-07T17:27:32;7.60;;;3.00;;
51718;SDS011;37795;53.236;5.704;2024-03-07T17:29:58;4.72;;;3.03;;
51718;SDS011;37795;53.236;5.704;2024-03-07T17:32:24;3.90;;;2.90;;
51718;SDS011;37795;53.236;5.704;2024-03-07T17:34:50;4.03;;;2.90;;
51718;SDS011;37795;53.236;5.704;2024-03-07T17:37:16;4.22;;;2.90;;
51718;SDS011;37795;53.236;5.704;2024-03-07T17:39:42;4.97;;;3.50;;
51718;SDS011;37795;53.236;5.704;2024-03-07T17:42:09;6.07;;;3.20;;
51718;SDS011;37795;53.236;5.704;2024-03-07T17:44:38;4.50;;;3.17;;
51718;SDS011;37795;53.236;5.704;2024-03-07T17:47:04;4.05;;;2.97;;
51718;SDS011;37795;53.236;5.704;2024-03-07T17:49:38;5.68;;;3.35;;
51718;SDS011;37795;53.236;5.704;2024-03-07T17:52:05;4.22;;;2.75;;
51718;SDS011;37795;53.236;5.704;2024-03-07T17:54:38;4.13;;;2.88;;
51718;SDS011;37795;53.236;5.704;2024-03-07T17:57:08;5.78;;;3.42;;
51718;SDS011;37795;53.236;5.704;2024-03-07T17:59:34;4.78;;;3.00;;
51718;SDS011;37795;53.236;5.704;2024-03-07T18:01:59;3.30;;;2.63;;
51718;SDS011;37795;53.236;5.704;2024-03-07T18:04:25;5.05;;;3.25;;
51718;SDS011;37795;53.236;5.704;2024-03-07T18:06:51;4.90;;;3.25;;
51718;SDS011;37795;53.236;5.704;2024-03-07T18:09:18;4.80;;;3.13;;
51718;SDS011;37795;53.236;5.704;2024-03-07T18:11:56;4.97;;;2.83;;
51718;SDS011;37795;53.236;5.704;2024-03-07T18:14:23;5.00;;;3.08;;
51718;SDS011;37795;53.236;5.704;2024-03-07T18:16:49;5.03;;;3.00;;
51718;SDS011;37795;53.236;5.704;2024-03-07T18:19:18;4.15;;;2.92;;
51718;SDS011;37795;53.236;5.704;2024-03-07T18:21:43;5.35;;;2.90;;
51718;SDS011;37795;53.236;5.704;2024-03-07T18:24:09;5.10;;;2.78;;
51718;SDS011;37795;53.236;5.704;2024-03-07T18:26:35;4.47;;;3.20;;
51718;SDS011;37795;53.236;5.704;2024-03-07T18:29:01;4.13;;;2.83;;
51718;SDS011;37795;53.236;5.704;2024-03-07T18:31:28;4.30;;;2.65;;
51718;SDS011;37795;53.236;5.704;2024-03-07T18:33:56;4.30;;;2.70;;
51718;SDS011;37795;53.236;5.704;2024-03-07T18:36:22;3.83;;;2.80;;
51718;SDS011;37795;53.236;5.704;2024-03-07T18:38:48;4.50;;;2.70;;
51718;SDS011;37795;53.236;5.704;2024-03-07T18:41:15;4.55;;;2.80;;
51718;SDS011;37795;53.236;5.704;2024-03-07T18:51:12;4.43;;;3.75;;
51718;SDS011;37795;53.236;5.704;2024-03-07T18:53:38;4.57;;;4.05;;
51718;SDS011;37795;53.236;5.704;2024-03-07T18:56:03;5.15;;;4.00;;
51718;SDS011;37795;53.236;5.704;2024-03-07T18:58:35;4.53;;;4.00;;
51718;SDS011;37795;53.236;5.704;2024-03-07T19:01:03;5.47;;;3.93;;
51718;SDS011;37795;53.236;5.704;2024-03-07T19:03:31;4.55;;;3.90;;
51718;SDS011;37795;53.236;5.704;2024-03-07T19:05:57;4.07;;;3.67;;
51718;SDS011;37795;53.236;5.704;2024-03-07T19:08:23;4.28;;;3.60;;
51718;SDS011;37795;53.236;5.704;2024-03-07T19:10:54;4.25;;;3.78;;
51718;SDS011;37795;53.236;5.704;2024-03-07T19:13:23;4.55;;;3.67;;
51718;SDS011;37795;53.236;5.704;2024-03-07T19:15:52;4.80;;;3.92;;
51718;SDS011;37795;53.236;5.704;2024-03-07T19:18:22;4.80;;;3.53;;
51718;SDS011;37795;53.236;5.704;2024-03-07T19:20:48;4.20;;;3.50;;
51718;SDS011;37795;53.236;5.704;2024-03-07T19:23:15;4.78;;;3.67;;
51718;SDS011;37795;53.236;5.704;2024-03-07T19:25:42;3.50;;;3.17;;
51718;SDS011;37795;53.236;5.704;2024-03-07T19:28:09;4.38;;;3.38;;
51718;SDS011;37795;53.236;5.704;2024-03-07T19:30:37;4.25;;;3.40;;
51718;SDS011;37795;53.236;5.704;2024-03-07T19:33:10;3.87;;;3.13;;
51718;SDS011;37795;53.236;5.704;2024-03-07T19:36:01;4.35;;;3.45;;
51718;SDS011;37795;53.236;5.704;2024-03-07T19:38:27;4.07;;;3.37;;
51718;SDS011;37795;53.236;5.704;2024-03-07T19:40:54;4.20;;;3.20;;
51718;SDS011;37795;53.236;5.704;2024-03-07T19:43:20;4.23;;;3.60;;
51718;SDS011;37795;53.236;5.704;2024-03-07T19:45:48;4.10;;;3.40;;
51718;SDS011;37795;53.236;5.704;2024-03-07T19:48:14;4.50;;;3.85;;
51718;SDS011;37795;53.236;5.704;2024-03-07T19:50:40;3.95;;;3.55;;
51718;SDS011;37795;53.236;5.704;2024-03-07T19:53:09;3.63;;;3.30;;
51718;SDS011;37795;53.236;5.704;2024-03-07T19:55:42;4.10;;;3.40;;
51718;SDS011;37795;53.236;5.704;2024-03-07T19:58:11;4.20;;;3.57;;
51718;SDS011;37795;53.236;5.704;2024-03-07T20:00:41;3.67;;;3.28;;
51718;SDS011;37795;53.236;5.704;2024-03-07T20:03:11;4.10;;;3.10;;
51718;SDS011;37795;53.236;5.704;2024-03-07T20:05:45;4.28;;;3.53;;
51718;SDS011;37795;53.236;5.704;2024-03-07T20:08:13;3.83;;;3.42;;
51718;SDS011;37795;53.236;5.704;2024-03-07T20:10:39;4.63;;;3.63;;
51718;SDS011;37795;53.236;5.704;2024-03-07T20:13:07;3.60;;;3.30;;
51718;SDS011;37795;53.236;5.704;2024-03-07T20:15:33;3.90;;;3.50;;
51718;SDS011;37795;53.236;5.704;2024-03-07T20:17:59;4.40;;;3.40;;
51718;SDS011;37795;53.236;5.704;2024-03-07T20:20:25;4.00;;;3.50;;
51718;SDS011;37795;53.236;5.704;2024-03-07T20:22:54;4.63;;;3.45;;
51718;SDS011;37795;53.236;5.704;2024-03-07T20:25:20;4.43;;;3.73;;
51718;SDS011;37795;53.236;5.704;2024-03-07T20:27:47;4.03;;;3.58;;
51718;SDS011;37795;53.236;5.704;2024-03-07T20:30:18;4.05;;;3.47;;
51718;SDS011;37795;53.236;5.704;2024-03-07T20:32:48;4.57;;;3.75;;
51718;SDS011;37795;53.236;5.704;2024-03-07T20:35:18;4.00;;;3.60;;
51718;SDS011;37795;53.236;5.704;2024-03-07T20:37:45;4.40;;;3.30;;
51718;SDS011;37795;53.236;5.704;2024-03-07T20:40:18;3.88;;;3.47;;
51718;SDS011;37795;53.236;5.704;2024-03-07T20:42:52;4.13;;;3.65;;
51718;SDS011;37795;53.236;5.704;2024-03-07T20:45:19;4.00;;;3.30;;
51718;SDS011;37795;53.236;5.704;2024-03-07T20:47:47;4.38;;;3.88;;
51718;SDS011;37795;53.236;5.704;2024-03-07T20:50:20;4.10;;;3.20;;
51718;SDS011;37795;53.236;5.704;2024-03-07T20:52:49;3.97;;;3.38;;
51718;SDS011;37795;53.236;5.704;2024-03-07T20:55:17;4.53;;;3.50;;
51718;SDS011;37795;53.236;5.704;2024-03-07T20:57:44;4.57;;;3.50;;
51718;SDS011;37795;53.236;5.704;2024-03-07T21:00:21;4.00;;;3.60;;
51718;SDS011;37795;53.236;5.704;2024-03-07T21:02:52;3.70;;;3.20;;
51718;SDS011;37795;53.236;5.704;2024-03-07T21:05:20;5.30;;;3.47;;
51718;SDS011;37795;53.236;5.704;2024-03-07T21:07:46;3.90;;;3.42;;
51718;SDS011;37795;53.236;5.704;2024-03-07T21:10:14;3.80;;;3.40;;
51718;SDS011;37795;53.236;5.704;2024-03-07T21:12:41;3.67;;;3.20;;
51718;SDS011;37795;53.236;5.704;2024-03-07T21:15:07;4.25;;;3.38;;
51718;SDS011;37795;53.236;5.704;2024-03-07T21:17:35;4.05;;;3.50;;
51718;SDS011;37795;53.236;5.704;2024-03-07T21:20:11;4.18;;;3.33;;
51718;SDS011;37795;53.236;5.704;2024-03-07T21:22:38;3.63;;;3.10;;
51718;SDS011;37795;53.236;5.704;2024-03-07T21:25:08;4.43;;;3.20;;
51718;SDS011;37795;53.236;5.704;2024-03-07T21:27:40;4.03;;;3.10;;
51718;SDS011;37795;53.236;5.704;2024-03-07T21:30:08;4.30;;;3.65;;
51718;SDS011;37795;53.236;5.704;2024-03-07T21:32:37;3.75;;;3.10;;
51718;SDS011;37795;53.236;5.704;2024-03-07T21:35:03;4.77;;;3.53;;
51718;SDS011;37795;53.236;5.704;2024-03-07T21:37:32;3.50;;;3.10;;
51718;SDS011;37795;53.236;5.704;2024-03-07T21:39:59;5.03;;;3.72;;
51718;SDS011;37795;53.236;5.704;2024-03-07T21:42:26;3.80;;;3.30;;
51718;SDS011;37795;53.236;5.704;2024-03-07T21:51:12;3.63;;;3.15;;
51718;SDS011;37795;53.236;5.704;2024-03-07T21:53:38;4.95;;;3.83;;
51718;SDS011;37795;53.236;5.704;2024-03-07T21:56:09;4.72;;;3.80;;
51718;SDS011;37795;53.236;5.704;2024-03-07T21:58:35;4.45;;;3.53;;
51718;SDS011;37795;53.236;5.704;2024-03-07T22:01:00;4.77;;;3.43;;
51718;SDS011;37795;53.236;5.704;2024-03-07T22:03:26;4.00;;;3.17;;
51718;SDS011;37795;53.236;5.704;2024-03-07T22:05:52;3.95;;;3.55;;
51718;SDS011;37795;53.236;5.704;2024-03-07T22:08:17;4.27;;;3.43;;
51718;SDS011;37795;53.236;5.704;2024-03-07T22:10:43;3.90;;;3.40;;
51718;SDS011;37795;53.236;5.704;2024-03-07T22:13:13;4.60;;;3.60;;
51718;SDS011;37795;53.236;5.704;2024-03-07T22:15:39;3.65;;;3.03;;
51718;SDS011;37795;53.236;5.704;2024-03-07T22:18:04;4.03;;;3.63;;
51718;SDS011;37795;53.236;5.704;2024-03-07T22:20:30;4.07;;;3.50;;
51718;SDS011;37795;53.236;5.704;2024-03-07T22:22:56;4.20;;;3.38;;
51718;SDS011;37795;53.236;5.704;2024-03-07T22:25:22;4.40;;;3.23;;
51718;SDS011;37795;53.236;5.704;2024-03-07T22:27:52;5.68;;;4.15;;
51718;SDS011;37795;53.236;5.704;2024-03-07T22:30:18;5.90;;;4.30;;
51718;SDS011;37795;53.236;5.704;2024-03-07T22:32:47;5.53;;;4.18;;
51718;SDS011;37795;53.236;5.704;2024-03-07T22:35:13;7.53;;;4.10;;
51718;SDS011;37795;53.236;5.704;2024-03-07T22:37:43;5.95;;;4.13;;
51718;SDS011;37795;53.236;5.704;2024-03-07T22:40:12;7.95;;;4.53;;
51718;SDS011;37795;53.236;5.704;2024-03-07T22:42:41;5.90;;;4.18;;
51718;SDS011;37795;53.236;5.704;2024-03-07T22:45:08;5.47;;;3.78;;
51718;SDS011;37795;53.236;5.704;2024-03-07T22:47:42;5.17;;;3.90;;
51718;SDS011;37795;53.236;5.704;2024-03-07T22:50:11;5.15;;;3.88;;
51718;SDS011;37795;53.236;5.704;2024-03-07T22:52:39;6.93;;;4.10;;